createdAt,value
2017-08-29T00:00:29.519Z,97220.33
2017-08-29T00:02:57.131Z,97223.73
2017-08-29T00:05:24.749Z,97227.19
2017-08-29T00:07:52.350Z,97229.42
2017-08-29T00:10:19.936Z,97232.10
2017-08-29T00:12:47.565Z,97225.83
2017-08-29T00:15:15.192Z,97227.11
2017-08-29T00:17:43.212Z,97229.68
2017-08-29T00:20:10.835Z,97236.52
2017-08-29T00:22:38.436Z,97225.36
2017-08-29T00:25:06.053Z,97223.62
2017-08-29T00:27:33.631Z,97224.08
2017-08-29T00:30:01.249Z,97218.23
2017-08-29T00:32:28.914Z,97218.37
2017-08-29T00:34:56.548Z,97215.09
2017-08-29T00:37:24.137Z,97215.20
2017-08-29T00:39:52.134Z,97206.72
2017-08-29T00:42:19.747Z,97208.09
2017-08-29T00:44:47.344Z,97209.42
2017-08-29T00:47:15.314Z,97207.31
2017-08-29T00:49:42.917Z,97203.94
2017-08-29T00:52:10.532Z,97209.95
2017-08-29T00:54:38.134Z,97210.41
2017-08-29T00:57:05.790Z,97207.89
2017-08-29T00:59:33.580Z,97206.60
2017-08-29T01:02:01.311Z,97208.75
2017-08-29T01:04:28.900Z,97203.63
2017-08-29T01:06:57.192Z,97204.52
2017-08-29T01:09:25.279Z,97200.66
2017-08-29T01:11:52.894Z,97207.58
2017-08-29T01:14:20.592Z,97202.91
2017-08-29T01:16:48.209Z,97208.92
2017-08-29T01:19:15.984Z,97208.04
2017-08-29T01:21:43.574Z,97204.59
2017-08-29T01:24:11.362Z,97203.73
2017-08-29T01:26:38.942Z,97202.95
2017-08-29T01:29:06.699Z,97200.06
2017-08-29T01:31:34.300Z,97195.42
2017-08-29T01:34:01.914Z,97196.72
2017-08-29T01:36:29.536Z,97193.69
2017-08-29T01:38:57.122Z,97185.09
2017-08-29T01:41:24.782Z,97185.50
2017-08-29T01:43:52.403Z,97181.67
2017-08-29T01:46:20.098Z,97178.70
2017-08-29T01:48:47.697Z,97173.16
2017-08-29T01:51:15.313Z,97175.78
2017-08-29T01:53:42.921Z,97174.06
2017-08-29T01:56:10.540Z,97173.23
2017-08-29T01:58:38.137Z,97174.97
2017-08-29T02:01:06.128Z,97178.03
2017-08-29T02:03:33.717Z,97178.50
2017-08-29T02:06:01.328Z,97179.81
2017-08-29T02:08:28.950Z,97175.89
2017-08-29T02:10:56.555Z,97178.81
2017-08-29T02:13:24.267Z,97180.50
2017-08-29T02:15:51.944Z,97176.28
2017-08-29T02:18:19.561Z,97177.11
2017-08-29T02:20:47.179Z,97177.92
2017-08-29T02:23:14.796Z,97173.63
2017-08-29T02:25:42.407Z,97178.25
2017-08-29T02:28:10.395Z,97179.51
2017-08-29T02:30:37.970Z,97170.98
2017-08-29T02:33:05.583Z,97172.30
2017-08-29T02:35:33.223Z,97168.58
2017-08-29T02:38:01.840Z,97167.82
2017-08-29T02:40:29.583Z,97164.06
2017-08-29T02:42:57.181Z,97164.06
2017-08-29T02:45:24.803Z,97160.20
2017-08-29T02:47:52.409Z,97162.78
2017-08-29T02:50:20.320Z,97159.86
2017-08-29T02:52:47.940Z,97159.47
2017-08-29T02:55:15.523Z,97157.36
2017-08-29T02:57:43.135Z,97159.97
2017-08-29T03:00:10.713Z,97154.01
2017-08-29T03:02:44.227Z,97154.82
2017-08-29T03:05:11.845Z,97157.36
2017-08-29T03:07:39.515Z,97163.77
2017-08-29T03:10:07.148Z,97160.73
2017-08-29T03:12:34.728Z,97154.33
2017-08-29T03:15:02.340Z,97153.06
2017-08-29T03:17:30.019Z,97148.44
2017-08-29T03:19:57.623Z,97145.50
2017-08-29T03:22:25.242Z,97145.91
2017-08-29T03:24:52.855Z,97150.25
2017-08-29T03:27:20.486Z,97156.69
2017-08-29T03:29:48.090Z,97151.56
2017-08-29T03:32:15.743Z,97158.80
2017-08-29T03:34:43.352Z,97165.20
2017-08-29T03:37:10.958Z,97162.17
2017-08-29T03:39:38.572Z,97159.11
2017-08-29T03:42:06.167Z,97170.63
2017-08-29T03:44:33.792Z,97162.08
2017-08-29T03:47:01.419Z,97172.41
2017-08-29T03:49:29.013Z,97175.88
2017-08-29T03:51:56.620Z,97167.41
2017-08-29T03:54:24.208Z,97168.31
2017-08-29T03:56:51.835Z,97171.37
2017-08-29T03:59:19.430Z,97167.17
2017-08-29T04:01:47.066Z,97171.92
2017-08-29T04:04:14.674Z,97174.50
2017-08-29T04:06:42.343Z,97178.81
2017-08-29T04:09:10.005Z,97175.45
2017-08-29T04:11:37.605Z,97174.59
2017-08-29T04:14:05.254Z,97180.56
2017-08-29T04:16:33.023Z,97187.38
2017-08-29T04:19:00.677Z,97182.25
2017-08-29T04:21:28.258Z,97179.67
2017-08-29T04:23:55.882Z,97182.62
2017-08-29T04:26:23.480Z,97184.73
2017-08-29T04:28:51.587Z,97184.29
2017-08-29T04:31:19.170Z,97185.56
2017-08-29T04:33:46.780Z,97182.98
2017-08-29T04:36:14.409Z,97192.80
2017-08-29T04:38:42.024Z,97179.20
2017-08-29T04:41:09.657Z,97174.95
2017-08-29T04:43:37.258Z,97180.52
2017-08-29T04:46:04.865Z,97179.67
2017-08-29T04:48:32.488Z,97179.63
2017-08-29T04:51:00.117Z,97177.91
2017-08-29T04:53:27.827Z,97185.09
2017-08-29T04:55:55.437Z,97187.19
2017-08-29T04:58:23.077Z,97189.69
2017-08-29T05:00:50.702Z,97188.77
2017-08-29T05:03:18.322Z,97192.67
2017-08-29T05:05:45.900Z,97194.80
2017-08-29T05:08:13.527Z,97189.67
2017-08-29T05:10:41.127Z,97188.78
2017-08-29T05:13:08.757Z,97187.00
2017-08-29T05:15:36.357Z,97190.37
2017-08-29T05:18:03.951Z,97191.18
2017-08-29T05:20:31.547Z,97192.39
2017-08-29T05:22:59.150Z,97204.75
2017-08-29T05:25:26.838Z,97196.97
2017-08-29T05:27:54.449Z,97196.07
2017-08-29T05:30:22.108Z,97200.70
2017-08-29T05:32:49.709Z,97195.48
2017-08-29T05:35:17.309Z,97188.17
2017-08-29T05:37:44.913Z,97186.91
2017-08-29T05:40:13.078Z,97187.77
2017-08-29T05:42:40.713Z,97183.09
2017-08-29T05:45:08.332Z,97184.80
2017-08-29T05:47:35.941Z,97188.63
2017-08-29T05:50:03.565Z,97185.18
2017-08-29T05:52:31.191Z,97178.75
2017-08-29T05:54:58.811Z,97182.50
2017-08-29T05:57:26.503Z,97181.58
2017-08-29T05:59:54.120Z,97183.20
2017-08-29T06:02:21.764Z,97178.43
2017-08-29T06:04:49.447Z,97174.93
2017-08-29T06:07:17.064Z,97175.30
2017-08-29T06:09:44.685Z,97174.40
2017-08-29T06:12:12.292Z,97171.34
2017-08-29T06:14:39.936Z,97169.23
2017-08-29T06:17:07.533Z,97168.73
2017-08-29T06:19:35.148Z,97178.91
2017-08-29T06:22:02.845Z,97171.98
2017-08-29T06:24:30.457Z,97175.27
2017-08-29T06:26:58.099Z,97170.47
2017-08-29T06:29:25.702Z,97169.98
2017-08-29T06:31:53.340Z,97174.64
2017-08-29T06:34:20.986Z,97178.00
2017-08-29T06:36:48.717Z,97174.89
2017-08-29T06:39:16.327Z,97171.30
2017-08-29T06:41:44.223Z,97167.00
2017-08-29T06:44:11.847Z,97160.91
2017-08-29T06:46:39.604Z,97162.48
2017-08-29T06:49:07.247Z,97162.36
2017-08-29T06:51:34.846Z,97152.41
2017-08-29T06:54:08.546Z,97160.02
2017-08-29T06:56:36.133Z,97156.52
2017-08-29T06:59:03.769Z,97158.49
2017-08-29T07:01:31.378Z,97148.92
2017-08-29T07:03:59.011Z,97158.25
2017-08-29T07:06:26.617Z,97159.00
2017-08-29T07:08:54.237Z,97158.07
2017-08-29T07:11:21.861Z,97166.28
2017-08-29T07:13:49.536Z,97162.71
2017-08-29T07:16:17.165Z,97166.35
2017-08-29T07:18:44.793Z,97165.37
2017-08-29T07:21:12.413Z,97161.02
2017-08-29T07:23:40.171Z,97161.28
2017-08-29T07:26:07.821Z,97171.92
2017-08-29T07:28:35.449Z,97169.94
2017-08-29T07:31:03.337Z,97174.81
2017-08-29T07:33:30.962Z,97164.27
2017-08-29T07:35:58.563Z,97169.64
2017-08-29T07:38:26.265Z,97164.33
2017-08-29T07:40:54.030Z,97169.47
2017-08-29T07:43:21.888Z,97159.05
2017-08-29T07:45:49.493Z,97164.41
2017-08-29T07:48:17.106Z,97165.47
2017-08-29T07:50:44.749Z,97170.41
2017-08-29T07:53:12.386Z,97171.55
2017-08-29T07:55:39.978Z,97168.41
2017-08-29T07:58:07.944Z,97167.03
2017-08-29T08:00:35.562Z,97172.82
2017-08-29T08:03:03.186Z,97175.59
2017-08-29T08:05:30.966Z,97175.64
2017-08-29T08:07:58.612Z,97174.92
2017-08-29T08:10:26.250Z,97174.88
2017-08-29T08:12:53.907Z,97171.88
2017-08-29T08:15:21.513Z,97173.06
2017-08-29T08:17:49.339Z,97167.27
2017-08-29T08:20:16.961Z,97171.73
2017-08-29T08:22:44.583Z,97178.36
2017-08-29T08:25:12.527Z,97175.72
2017-08-29T08:27:40.122Z,97180.36
2017-08-29T08:30:07.793Z,97187.98
2017-08-29T08:32:35.441Z,97183.87
2017-08-29T08:35:03.081Z,97183.17
2017-08-29T08:37:30.752Z,97186.61
2017-08-29T08:39:58.343Z,97181.30
2017-08-29T08:42:26.010Z,97179.78
2017-08-29T08:44:53.808Z,97170.16
2017-08-29T08:47:21.432Z,97169.68
2017-08-29T08:49:49.139Z,97166.50
2017-08-29T08:52:17.295Z,97171.80
2017-08-29T08:54:44.907Z,97162.91
2017-08-29T08:57:12.723Z,97167.55
2017-08-29T08:59:40.402Z,97172.34
2017-08-29T09:02:08.018Z,97170.00
2017-08-29T09:04:35.665Z,97175.12
2017-08-29T09:07:03.280Z,97171.50
2017-08-29T09:09:30.911Z,97168.11
2017-08-29T09:11:58.529Z,97164.34
2017-08-29T09:14:26.439Z,97163.50
2017-08-29T09:16:54.036Z,97167.17
2017-08-29T09:19:21.654Z,97167.23
2017-08-29T09:21:49.271Z,97160.31
2017-08-29T09:24:16.913Z,97165.24
2017-08-29T09:26:44.629Z,97157.36
2017-08-29T09:29:12.225Z,97155.80
2017-08-29T09:31:39.862Z,97160.79
2017-08-29T09:34:07.476Z,97158.19
2017-08-29T09:36:35.136Z,97166.58
2017-08-29T09:39:02.735Z,97167.74
2017-08-29T09:41:30.359Z,97170.24
2017-08-29T09:43:57.982Z,97165.86
2017-08-29T09:46:26.010Z,97161.62
2017-08-29T09:48:53.615Z,97156.81
2017-08-29T09:51:21.225Z,97154.12
2017-08-29T09:53:48.916Z,97149.73
2017-08-29T09:56:16.540Z,97144.83
2017-08-29T09:58:44.184Z,97143.77
2017-08-29T10:01:11.814Z,97141.40
2017-08-29T10:03:39.612Z,97140.55
2017-08-29T10:06:07.274Z,97137.27
2017-08-29T10:08:34.930Z,97128.27
2017-08-29T10:11:02.562Z,97127.61
2017-08-29T10:13:30.189Z,97126.29
2017-08-29T10:15:57.799Z,97121.16
2017-08-29T10:18:25.437Z,97126.77
2017-08-29T10:20:53.302Z,97121.79
2017-08-29T10:23:20.933Z,97121.43
2017-08-29T10:25:48.547Z,97118.70
2017-08-29T10:28:16.144Z,97118.53
2017-08-29T10:30:43.772Z,97116.80
2017-08-29T10:33:11.985Z,97114.84
2017-08-29T10:35:39.687Z,97108.34
2017-08-29T10:38:07.295Z,97111.81
2017-08-29T10:40:34.950Z,97103.94
2017-08-29T10:43:02.588Z,97107.86
2017-08-29T10:45:30.198Z,97106.20
2017-08-29T10:47:57.840Z,97098.00
2017-08-29T10:50:25.428Z,97098.70
2017-08-29T10:52:53.027Z,97097.33
2017-08-29T10:55:20.736Z,97104.39
2017-08-29T10:57:48.541Z,97109.09
2017-08-29T11:00:16.254Z,97105.69
2017-08-29T11:02:43.895Z,97111.56
2017-08-29T11:05:11.472Z,97102.89
2017-08-29T11:07:39.063Z,97100.37
2017-08-29T11:10:06.708Z,97099.05
2017-08-29T11:12:34.309Z,97099.86
2017-08-29T11:15:01.920Z,97092.38
2017-08-29T11:17:29.515Z,97088.30
2017-08-29T11:19:57.146Z,97092.38
2017-08-29T11:22:24.757Z,97081.56
2017-08-29T11:24:52.427Z,97084.06
2017-08-29T11:27:20.098Z,97085.52
2017-08-29T11:29:47.686Z,97079.63
2017-08-29T11:32:15.334Z,97080.63
2017-08-29T11:34:42.924Z,97077.19
2017-08-29T11:37:10.528Z,97086.64
2017-08-29T11:39:38.106Z,97083.19
2017-08-29T11:42:05.722Z,97087.06
2017-08-29T11:44:33.312Z,97085.28
2017-08-29T11:47:00.926Z,97082.13
2017-08-29T11:49:28.499Z,97082.55
2017-08-29T11:51:56.142Z,97073.98
2017-08-29T11:54:23.776Z,97073.91
2017-08-29T11:56:51.374Z,97073.56
2017-08-29T11:59:19.657Z,97075.38
2017-08-29T12:01:47.246Z,97070.09
2017-08-29T12:04:15.014Z,97064.00
2017-08-29T12:06:42.636Z,97070.09
2017-08-29T12:09:10.256Z,97061.42
2017-08-29T12:11:37.868Z,97066.34
2017-08-29T12:14:05.499Z,97054.59
2017-08-29T12:16:33.100Z,97056.12
2017-08-29T12:19:00.701Z,97052.31
2017-08-29T12:21:28.308Z,97049.05
2017-08-29T12:23:55.912Z,97052.05
2017-08-29T12:26:23.552Z,97047.72
2017-08-29T12:28:51.161Z,97052.47
2017-08-29T12:31:18.806Z,97050.59
2017-08-29T12:33:46.405Z,97040.03
2017-08-29T12:36:14.045Z,97036.73
2017-08-29T12:38:41.687Z,97028.73
2017-08-29T12:41:09.389Z,97030.88
2017-08-29T12:43:36.982Z,97018.45
2017-08-29T12:46:04.576Z,97015.64
2017-08-29T12:48:32.210Z,97024.91
2017-08-29T12:50:59.823Z,97016.84
2017-08-29T12:53:27.464Z,97009.12
2017-08-29T12:55:55.115Z,97007.20
2017-08-29T12:58:22.703Z,97004.40
2017-08-29T13:00:50.300Z,97006.36
2017-08-29T13:03:18.289Z,96999.60
2017-08-29T13:05:45.883Z,97000.45
2017-08-29T13:08:13.496Z,96991.63
2017-08-29T13:10:41.109Z,96989.77
2017-08-29T13:13:08.669Z,96989.79
2017-08-29T13:15:36.313Z,96992.95
2017-08-29T13:18:03.953Z,96988.86
2017-08-29T13:20:31.572Z,96980.93
2017-08-29T13:22:59.179Z,96979.88
2017-08-29T13:25:26.836Z,96973.16
2017-08-29T13:27:54.426Z,96974.33
2017-08-29T13:30:22.373Z,96977.43
2017-08-29T13:32:50.007Z,96968.19
2017-08-29T13:35:17.637Z,96963.68
2017-08-29T13:37:45.529Z,96958.29
2017-08-29T13:40:13.136Z,96958.22
2017-08-29T13:42:40.786Z,96948.86
2017-08-29T13:45:08.413Z,96948.48
2017-08-29T13:47:36.038Z,96948.72
2017-08-29T13:50:03.636Z,96945.45
2017-08-29T13:52:31.626Z,96942.84
2017-08-29T13:54:59.217Z,96941.69
2017-08-29T13:57:26.884Z,96930.71
2017-08-29T13:59:54.509Z,96931.34
2017-08-29T14:02:22.113Z,96935.83
2017-08-29T14:04:49.744Z,96929.54
2017-08-29T14:07:17.347Z,96936.75
2017-08-29T14:09:45.005Z,96928.44
2017-08-29T14:12:12.611Z,96932.29
2017-08-29T14:14:40.410Z,96929.09
2017-08-29T14:17:08.024Z,96929.37
2017-08-29T14:19:36.886Z,96925.38
2017-08-29T14:22:04.516Z,96929.47
2017-08-29T14:24:32.150Z,96922.63
2017-08-29T14:27:00.083Z,96926.70
2017-08-29T14:29:27.682Z,96920.39
2017-08-29T14:31:55.296Z,96922.30
2017-08-29T14:34:22.964Z,96918.00
2017-08-29T14:36:50.565Z,96907.88
2017-08-29T14:39:18.289Z,96907.05
2017-08-29T14:41:45.895Z,96909.97
2017-08-29T14:44:13.872Z,96903.92
2017-08-29T14:46:53.426Z,96901.63
2017-08-29T14:49:21.376Z,96901.65
2017-08-29T14:51:48.971Z,96898.53
2017-08-29T14:54:16.698Z,96894.56
2017-08-29T14:56:44.295Z,96889.91
2017-08-29T14:59:11.870Z,96894.14
2017-08-29T15:01:39.921Z,96892.31
2017-08-29T15:04:07.504Z,96891.87
2017-08-29T15:06:35.095Z,96889.34
2017-08-29T15:09:02.718Z,96889.13
2017-08-29T15:11:30.301Z,96885.05
2017-08-29T15:13:57.977Z,96882.80
2017-08-29T15:16:25.686Z,96879.23
2017-08-29T15:18:53.307Z,96876.07
2017-08-29T15:21:20.907Z,96875.37
2017-08-29T15:23:48.591Z,96878.45
2017-08-29T15:26:16.214Z,96870.56
2017-08-29T15:28:43.805Z,96871.84
2017-08-29T15:31:11.418Z,96869.05
2017-08-29T15:33:39.004Z,96872.08
2017-08-29T15:36:06.645Z,96870.34
2017-08-29T15:38:34.237Z,96866.91
2017-08-29T15:41:01.863Z,96867.72
2017-08-29T15:43:29.446Z,96864.83
2017-08-29T15:45:57.409Z,96870.75
2017-08-29T15:48:24.997Z,96867.80
2017-08-29T15:50:52.586Z,96873.86
2017-08-29T15:53:20.189Z,96871.46
2017-08-29T15:55:47.788Z,96872.22
2017-08-29T15:58:15.384Z,96870.61
2017-08-29T16:00:43.103Z,96868.98
2017-08-29T16:03:10.720Z,96869.03
2017-08-29T16:05:38.347Z,96875.63
2017-08-29T16:08:05.961Z,96875.88
2017-08-29T16:10:33.561Z,96877.77
2017-08-29T16:13:01.232Z,96876.75
2017-08-29T16:15:28.829Z,96875.54
2017-08-29T16:17:56.710Z,96876.00
2017-08-29T16:20:24.308Z,96876.58
2017-08-29T16:22:51.906Z,96869.77
2017-08-29T16:25:19.613Z,96873.27
2017-08-29T16:27:47.261Z,96875.25
2017-08-29T16:30:14.886Z,96877.34
2017-08-29T16:32:42.485Z,96864.69
2017-08-29T16:35:10.243Z,96867.33
2017-08-29T16:37:37.857Z,96864.47
2017-08-29T16:40:05.781Z,96860.78
2017-08-29T16:42:33.475Z,96860.63
2017-08-29T16:45:01.084Z,96864.73
2017-08-29T16:47:28.711Z,96867.89
2017-08-29T16:49:56.450Z,96864.45
2017-08-29T16:52:24.107Z,96859.84
2017-08-29T16:54:51.725Z,96860.84
2017-08-29T16:57:20.491Z,96861.13
2017-08-29T16:59:48.089Z,96860.34
2017-08-29T17:02:15.728Z,96855.48
2017-08-29T17:04:43.345Z,96855.08
2017-08-29T17:07:11.059Z,96865.70
2017-08-29T17:09:38.640Z,96859.41
2017-08-29T17:12:06.384Z,96861.09
2017-08-29T17:14:34.009Z,96862.41
2017-08-29T17:17:01.951Z,96857.66
2017-08-29T17:19:29.573Z,96862.72
2017-08-29T17:21:57.183Z,96860.02
2017-08-29T17:24:25.044Z,96871.25
2017-08-29T17:26:52.648Z,96862.53
2017-08-29T17:29:20.263Z,96867.33
2017-08-29T17:31:47.846Z,96864.70
2017-08-29T17:34:15.628Z,96865.56
2017-08-29T17:36:43.230Z,96860.75
2017-08-29T17:39:11.202Z,96862.02
2017-08-29T17:41:38.836Z,96872.45
2017-08-29T17:44:06.434Z,96873.49
2017-08-29T17:46:34.073Z,96879.67
2017-08-29T17:49:01.685Z,96877.41
2017-08-29T17:51:29.313Z,96876.34
2017-08-29T17:53:56.954Z,96880.59
2017-08-29T17:56:24.674Z,96877.45
2017-08-29T17:58:52.288Z,96874.75
2017-08-29T18:01:19.915Z,96883.34
2017-08-29T18:03:47.551Z,96879.31
2017-08-29T18:06:15.457Z,96881.00
2017-08-29T18:08:43.059Z,96883.12
2017-08-29T18:11:10.685Z,96876.09
2017-08-29T18:13:38.306Z,96876.41
2017-08-29T18:16:05.898Z,96878.82
2017-08-29T18:18:33.510Z,96879.81
2017-08-29T18:21:01.194Z,96883.36
2017-08-29T18:23:28.804Z,96875.52
2017-08-29T18:25:56.524Z,96875.91
2017-08-29T18:28:24.787Z,96872.37
2017-08-29T18:30:52.378Z,96877.11
2017-08-29T18:33:20.158Z,96873.58
2017-08-29T18:35:47.794Z,96882.52
2017-08-29T18:38:15.678Z,96883.09
2017-08-29T18:40:43.285Z,96885.45
2017-08-29T18:43:10.912Z,96884.72
2017-08-29T18:45:38.542Z,96886.63
2017-08-29T18:48:06.199Z,96883.82
2017-08-29T18:50:33.799Z,96897.01
2017-08-29T18:53:01.396Z,96899.33
2017-08-29T18:55:29.045Z,96905.41
2017-08-29T18:57:56.655Z,96902.95
2017-08-29T19:00:24.280Z,96903.99
2017-08-29T19:02:52.063Z,96907.22
2017-08-29T19:05:20.046Z,96909.78
2017-08-29T19:07:47.662Z,96911.82
2017-08-29T19:10:15.348Z,96916.05
2017-08-29T19:12:43.043Z,96919.31
2017-08-29T19:15:10.634Z,96926.89
2017-08-29T19:17:38.288Z,96918.61
2017-08-29T19:20:05.965Z,96923.17
2017-08-29T19:22:33.571Z,96934.19
2017-08-29T19:25:01.181Z,96936.11
2017-08-29T19:27:28.846Z,96933.71
2017-08-29T19:29:56.451Z,96929.55
2017-08-29T19:32:24.642Z,96935.32
2017-08-29T19:34:52.275Z,96930.64
2017-08-29T19:37:19.912Z,96932.50
2017-08-29T19:39:47.522Z,96939.91
2017-08-29T19:42:15.198Z,96940.90
2017-08-29T19:44:43.017Z,96947.79
2017-08-29T19:47:10.638Z,96948.80
2017-08-29T19:49:38.289Z,96947.21
2017-08-29T19:52:05.946Z,96942.23
2017-08-29T19:54:33.646Z,96942.40
2017-08-29T19:57:01.235Z,96939.89
2017-08-29T19:59:29.135Z,96935.26
2017-08-29T20:01:56.835Z,96934.47
2017-08-29T20:04:24.506Z,96938.56
2017-08-29T20:06:52.218Z,96934.23
2017-08-29T20:09:19.921Z,96936.47
2017-08-29T20:11:47.532Z,96937.00
2017-08-29T20:14:15.104Z,96942.28
2017-08-29T20:16:42.725Z,96953.06
2017-08-29T20:19:10.498Z,96951.95
2017-08-29T20:21:38.135Z,96943.58
2017-08-29T20:24:05.895Z,96945.95
2017-08-29T20:26:33.519Z,96944.48
2017-08-29T20:29:01.200Z,96939.92
2017-08-29T20:31:29.098Z,96937.45
2017-08-29T20:33:56.838Z,96943.05
2017-08-29T20:36:24.449Z,96938.84
2017-08-29T20:38:52.083Z,96935.89
2017-08-29T20:41:19.694Z,96933.38
2017-08-29T20:43:47.326Z,96935.67
2017-08-29T20:46:15.112Z,96932.86
2017-08-29T20:48:42.728Z,96928.35
2017-08-29T20:51:10.431Z,96929.36
2017-08-29T20:53:38.064Z,96924.27
2017-08-29T20:56:05.645Z,96922.19
2017-08-29T20:58:33.606Z,96929.16
2017-08-29T21:01:01.232Z,96926.69
2017-08-29T21:03:29.012Z,96922.06
2017-08-29T21:05:56.630Z,96929.36
2017-08-29T21:08:24.220Z,96936.75
2017-08-29T21:10:51.877Z,96931.74
2017-08-29T21:13:19.550Z,96936.98
2017-08-29T21:15:47.180Z,96934.94
2017-08-29T21:18:14.814Z,96932.52
2017-08-29T21:20:42.436Z,96939.48
2017-08-29T21:23:10.054Z,96937.81
2017-08-29T21:25:37.754Z,96943.09
2017-08-29T21:28:05.341Z,96934.27
2017-08-29T21:30:33.328Z,96936.09
2017-08-29T21:33:00.925Z,96932.80
2017-08-29T21:35:28.528Z,96938.45
2017-08-29T21:37:56.550Z,96932.97
2017-08-29T21:40:24.153Z,96929.69
2017-08-29T21:42:51.773Z,96929.47
2017-08-29T21:45:19.387Z,96929.23
2017-08-29T21:47:47.012Z,96933.61
2017-08-29T21:50:14.617Z,96932.33
2017-08-29T21:52:42.215Z,96938.24
2017-08-29T21:55:09.822Z,96934.81
2017-08-29T21:57:37.950Z,96939.95
2017-08-29T22:00:05.702Z,96944.28
2017-08-29T22:02:33.309Z,96946.04
2017-08-29T22:05:00.996Z,96943.98
2017-08-29T22:07:28.584Z,96941.62
2017-08-29T22:09:56.200Z,96950.38
2017-08-29T22:12:23.840Z,96948.44
2017-08-29T22:14:51.429Z,96961.45
2017-08-29T22:17:19.139Z,96946.58
2017-08-29T22:19:46.751Z,96947.13
2017-08-29T22:22:14.323Z,96944.71
2017-08-29T22:24:42.227Z,96947.32
2017-08-29T22:27:09.829Z,96943.47
2017-08-29T22:29:37.425Z,96941.79
2017-08-29T22:32:05.126Z,96942.30
2017-08-29T22:34:32.725Z,96943.20
2017-08-29T22:37:00.460Z,96945.77
2017-08-29T22:39:28.041Z,96948.76
2017-08-29T22:41:55.660Z,96946.27
2017-08-29T22:44:23.264Z,96946.31
2017-08-29T22:46:50.888Z,96947.70
2017-08-29T22:49:18.481Z,96945.17
2017-08-29T22:51:46.078Z,96951.24
2017-08-29T22:54:13.658Z,96950.86
2017-08-29T22:56:41.274Z,96947.51
2017-08-29T22:59:08.829Z,96950.61
2017-08-29T23:01:36.816Z,96953.64
2017-08-29T23:04:04.389Z,96959.75
2017-08-29T23:06:32.007Z,96960.24
2017-08-29T23:08:59.624Z,96972.33
2017-08-29T23:11:27.226Z,96965.23
2017-08-29T23:13:54.850Z,96957.70
2017-08-29T23:16:22.448Z,96961.26
2017-08-29T23:18:50.010Z,96961.75
2017-08-29T23:21:17.617Z,96956.69
2017-08-29T23:23:45.299Z,96953.69
2017-08-29T23:26:12.875Z,96949.81
2017-08-29T23:28:40.485Z,96948.03
2017-08-29T23:31:08.066Z,96943.03
2017-08-29T23:33:35.676Z,96938.33
2017-08-29T23:36:03.286Z,96934.58
2017-08-29T23:38:31.565Z,96933.33
2017-08-29T23:40:59.235Z,96935.10
2017-08-29T23:43:26.819Z,96935.10
2017-08-29T23:45:54.434Z,96932.11
2017-08-29T23:48:22.130Z,96930.33
2017-08-29T23:50:49.741Z,96928.66
2017-08-29T23:53:17.320Z,96934.25
2017-08-29T23:55:44.963Z,96930.83
2017-08-29T23:58:12.556Z,96930.80
